createdAt,value
2018-05-21T00:01:55.602Z,15.99
2018-05-21T00:04:24.102Z,15.69
2018-05-21T00:06:52.568Z,15.85
2018-05-21T00:09:20.983Z,15.99
2018-05-21T00:11:49.497Z,16.03
2018-05-21T00:14:17.966Z,15.96
2018-05-21T00:16:46.478Z,15.58
2018-05-21T00:19:15.190Z,16.37
2018-05-21T00:21:43.652Z,16.45
2018-05-21T00:24:12.123Z,15.99
2018-05-21T00:26:40.644Z,15.52
2018-05-21T00:29:09.137Z,15.49
2018-05-21T00:31:37.772Z,15.63
2018-05-21T00:34:06.363Z,15.65
2018-05-21T00:36:34.893Z,15.57
2018-05-21T00:39:03.417Z,15.64
2018-05-21T00:41:32.093Z,14.97
2018-05-21T00:44:00.604Z,15.90
2018-05-21T00:46:29.856Z,15.73
2018-05-21T00:48:58.335Z,16.05
2018-05-21T00:51:26.798Z,15.74
2018-05-21T00:53:55.273Z,15.86
2018-05-21T00:56:23.762Z,16.16
2018-05-21T00:58:53.172Z,15.78
2018-05-21T01:01:21.692Z,16.06
2018-05-21T01:03:50.919Z,16.00
2018-05-21T01:06:20.191Z,15.67
2018-05-21T01:08:48.722Z,15.73
2018-05-21T01:11:17.202Z,15.93
2018-05-21T01:13:45.695Z,16.17
2018-05-21T01:16:14.179Z,15.75
2018-05-21T01:18:43.431Z,15.43
2018-05-21T01:21:11.910Z,15.47
2018-05-21T01:23:40.380Z,15.63
2018-05-21T01:26:08.882Z,15.74
2018-05-21T01:28:37.642Z,15.71
2018-05-21T01:31:06.124Z,15.79
2018-05-21T01:33:34.589Z,15.83
2018-05-21T01:36:03.142Z,15.77
2018-05-21T01:38:31.793Z,15.93
2018-05-21T01:41:00.305Z,15.88
2018-05-21T01:43:28.793Z,15.98
2018-05-21T01:45:58.135Z,15.69
2018-05-21T01:48:26.647Z,15.50
2018-05-21T01:50:55.162Z,15.46
2018-05-21T01:53:23.800Z,15.32
2018-05-21T01:55:53.077Z,15.30
2018-05-21T01:58:21.922Z,14.98
2018-05-21T02:00:50.499Z,14.75
2018-05-21T02:03:19.004Z,14.60
2018-05-21T02:05:47.489Z,14.69
2018-05-21T02:08:16.045Z,14.85
2018-05-21T02:10:44.460Z,14.80
2018-05-21T02:13:12.951Z,14.73
2018-05-21T02:15:41.442Z,14.67
2018-05-21T02:18:09.916Z,14.61
2018-05-21T02:20:38.350Z,14.60
2018-05-21T02:23:06.917Z,14.54
2018-05-21T02:25:39.078Z,14.19
2018-05-21T02:28:10.314Z,14.34
2018-05-21T02:30:38.768Z,14.46
2018-05-21T02:33:07.220Z,15.08
2018-05-21T02:35:35.697Z,14.80
2018-05-21T02:38:05.039Z,13.96
2018-05-21T02:40:33.543Z,14.17
2018-05-21T02:43:03.166Z,14.22
2018-05-21T02:45:31.636Z,13.97
2018-05-21T02:48:00.075Z,14.28
2018-05-21T02:50:28.537Z,14.28
2018-05-21T02:52:57.054Z,14.63
2018-05-21T02:55:25.567Z,14.48
2018-05-21T02:57:54.967Z,14.19
2018-05-21T03:00:23.439Z,14.01
2018-05-21T03:02:52.953Z,14.05
2018-05-21T03:05:21.490Z,13.94
2018-05-21T03:07:49.942Z,14.14
2018-05-21T03:10:18.416Z,13.76
2018-05-21T03:12:46.866Z,14.13
2018-05-21T03:15:16.173Z,14.11
2018-05-21T03:17:44.695Z,13.93
2018-05-21T03:20:13.181Z,13.74
2018-05-21T03:22:41.674Z,14.01
2018-05-21T03:25:10.137Z,13.60
2018-05-21T03:27:38.638Z,13.72
2018-05-21T03:30:07.178Z,14.34
2018-05-21T03:32:36.543Z,14.08
2018-05-21T03:35:05.786Z,14.01
2018-05-21T03:37:37.223Z,13.90
2018-05-21T03:40:05.745Z,13.74
2018-05-21T03:42:34.163Z,13.62
2018-05-21T03:45:03.536Z,13.69
2018-05-21T03:47:32.049Z,13.76
2018-05-21T03:50:00.526Z,13.51
2018-05-21T03:52:28.999Z,13.38
2018-05-21T03:54:57.490Z,13.54
2018-05-21T03:57:25.949Z,13.40
2018-05-21T04:00:11.890Z,13.45
2018-05-21T04:02:57.873Z,14.05
2018-05-21T04:05:26.402Z,13.76
2018-05-21T04:07:54.881Z,13.55
2018-05-21T04:10:23.389Z,13.57
2018-05-21T04:12:51.874Z,13.25
2018-05-21T04:15:20.348Z,13.37
2018-05-21T04:17:48.894Z,13.53
2018-05-21T04:20:18.175Z,13.13
2018-05-21T04:22:46.656Z,13.28
2018-05-21T04:25:15.140Z,13.48
2018-05-21T04:27:43.598Z,13.75
2018-05-21T04:30:12.098Z,13.59
2018-05-21T04:32:41.682Z,13.78
2018-05-21T04:35:10.221Z,13.87
2018-05-21T04:37:38.700Z,13.85
2018-05-21T04:40:07.993Z,13.95
2018-05-21T04:42:37.268Z,13.76
2018-05-21T04:45:08.197Z,13.61
2018-05-21T04:47:36.655Z,13.69
2018-05-21T04:50:05.103Z,13.76
2018-05-21T04:52:33.614Z,13.63
2018-05-21T04:55:02.102Z,13.84
2018-05-21T04:57:30.600Z,13.96
2018-05-21T05:00:01.334Z,13.93
2018-05-21T05:02:29.834Z,13.70
2018-05-21T05:04:58.369Z,13.72
2018-05-21T05:07:26.859Z,13.91
2018-05-21T05:09:55.458Z,13.69
2018-05-21T05:12:23.987Z,13.72
2018-05-21T05:14:52.522Z,13.92
2018-05-21T05:17:25.728Z,14.08
2018-05-21T05:19:57.339Z,14.02
2018-05-21T05:22:25.881Z,13.97
2018-05-21T05:24:54.352Z,13.92
2018-05-21T05:27:22.805Z,13.91
2018-05-21T05:29:51.273Z,14.06
2018-05-21T05:32:19.820Z,13.98
2018-05-21T05:34:48.322Z,14.18
2018-05-21T05:37:16.772Z,14.36
2018-05-21T05:39:48.625Z,14.19
2018-05-21T05:42:17.110Z,14.17
2018-05-21T05:44:45.617Z,14.24
2018-05-21T05:47:14.116Z,14.25
2018-05-21T05:49:42.610Z,14.43
2018-05-21T05:52:11.167Z,14.45
2018-05-21T05:54:39.852Z,14.43
2018-05-21T05:57:10.422Z,14.49
2018-05-21T05:59:38.912Z,14.52
2018-05-21T06:02:07.377Z,14.72
2018-05-21T06:04:36.638Z,14.69
2018-05-21T06:07:05.133Z,14.77
2018-05-21T06:09:33.572Z,14.78
2018-05-21T06:12:02.093Z,14.96
2018-05-21T06:14:30.552Z,14.96
2018-05-21T06:16:59.019Z,15.05
2018-05-21T06:19:29.802Z,14.97
2018-05-21T06:22:00.627Z,15.11
2018-05-21T06:24:29.055Z,15.15
2018-05-21T06:26:57.605Z,15.19
2018-05-21T06:29:27.189Z,15.29
2018-05-21T06:31:55.795Z,15.41
2018-05-21T06:34:24.446Z,15.41
2018-05-21T06:36:53.869Z,15.48
2018-05-21T06:39:22.352Z,15.46
2018-05-21T06:41:50.767Z,15.58
2018-05-21T06:44:19.298Z,15.66
2018-05-21T06:46:47.790Z,15.79
2018-05-21T06:49:16.241Z,15.89
2018-05-21T06:51:44.774Z,15.89
2018-05-21T06:54:14.062Z,15.92
2018-05-21T06:56:44.065Z,16.17
2018-05-21T06:59:12.576Z,16.17
2018-05-21T07:01:41.070Z,16.26
2018-05-21T07:04:09.601Z,16.43
2018-05-21T07:06:38.069Z,16.41
2018-05-21T07:09:08.240Z,16.44
2018-05-21T07:11:36.672Z,16.46
2018-05-21T07:14:05.179Z,16.53
2018-05-21T07:16:33.753Z,16.64
2018-05-21T07:19:02.285Z,16.73
2018-05-21T07:21:30.845Z,16.77
2018-05-21T07:23:59.308Z,16.83
2018-05-21T07:26:27.804Z,17.10
2018-05-21T07:28:56.239Z,17.17
2018-05-21T07:31:24.756Z,17.12
2018-05-21T07:33:53.196Z,17.26
2018-05-21T07:36:22.450Z,17.26
2018-05-21T07:38:50.947Z,17.38
2018-05-21T07:41:19.450Z,17.37
2018-05-21T07:43:48.032Z,17.41
2018-05-21T07:46:17.267Z,17.61
2018-05-21T07:48:46.505Z,17.70
2018-05-21T07:51:14.978Z,17.78
2018-05-21T07:53:43.412Z,17.97
2018-05-21T07:56:11.856Z,18.11
2018-05-21T07:58:40.296Z,17.97
2018-05-21T08:01:09.572Z,18.23
2018-05-21T08:03:38.028Z,18.26
2018-05-21T08:06:06.497Z,18.37
2018-05-21T08:08:35.028Z,18.46
2018-05-21T08:11:03.492Z,18.60
2018-05-21T08:13:31.989Z,18.67
2018-05-21T08:16:00.424Z,18.91
2018-05-21T08:18:28.954Z,18.91
2018-05-21T08:20:57.386Z,19.04
2018-05-21T08:23:25.889Z,19.09
2018-05-21T08:25:54.330Z,19.10
2018-05-21T08:28:22.799Z,19.25
2018-05-21T08:30:51.311Z,19.32
2018-05-21T08:33:19.735Z,19.42
2018-05-21T08:35:48.229Z,19.69
2018-05-21T08:38:17.520Z,19.87
2018-05-21T08:40:46.764Z,19.87
2018-05-21T08:43:15.250Z,19.83
2018-05-21T08:45:43.665Z,20.08
2018-05-21T08:48:12.891Z,20.05
2018-05-21T08:50:41.382Z,20.28
2018-05-21T08:53:09.841Z,20.24
2018-05-21T08:55:38.299Z,20.41
2018-05-21T08:58:06.795Z,20.48
2018-05-21T09:00:35.230Z,20.68
2018-05-21T09:03:03.742Z,20.66
2018-05-21T09:05:32.377Z,20.70
2018-05-21T09:08:00.886Z,20.70
2018-05-21T09:10:29.375Z,20.68
2018-05-21T09:12:57.893Z,20.94
2018-05-21T09:15:27.627Z,21.14
2018-05-21T09:17:56.111Z,21.04
2018-05-21T09:20:24.642Z,21.06
2018-05-21T09:22:53.107Z,21.22
2018-05-21T09:25:23.842Z,21.21
2018-05-21T09:27:52.515Z,21.32
2018-05-21T09:30:20.973Z,21.36
2018-05-21T09:32:50.227Z,21.62
2018-05-21T09:35:18.692Z,21.57
2018-05-21T09:37:47.229Z,21.40
2018-05-21T09:40:15.765Z,21.50
2018-05-21T09:42:44.224Z,21.62
2018-05-21T09:45:12.763Z,21.73
2018-05-21T09:47:41.690Z,21.72
2018-05-21T09:50:10.168Z,21.76
2018-05-21T09:52:38.658Z,21.79
2018-05-21T09:55:07.148Z,21.78
2018-05-21T09:57:35.806Z,21.92
2018-05-21T10:00:04.349Z,22.04
2018-05-21T10:02:32.909Z,22.22
2018-05-21T10:05:01.683Z,22.17
2018-05-21T10:07:30.616Z,22.25
2018-05-21T10:09:59.161Z,22.20
2018-05-21T10:12:27.650Z,22.13
2018-05-21T10:14:56.169Z,22.43
2018-05-21T10:17:24.695Z,22.51
2018-05-21T10:19:53.192Z,22.52
2018-05-21T10:22:24.134Z,22.54
2018-05-21T10:24:52.838Z,22.70
2018-05-21T10:27:21.273Z,22.72
2018-05-21T10:29:49.753Z,22.93
2018-05-21T10:32:18.236Z,22.87
2018-05-21T10:34:46.724Z,22.99
2018-05-21T10:37:17.197Z,23.02
2018-05-21T10:39:45.782Z,23.01
2018-05-21T10:42:14.311Z,23.50
2018-05-21T10:44:42.964Z,23.42
2018-05-21T10:47:11.480Z,23.58
2018-05-21T10:49:39.972Z,23.54
2018-05-21T10:52:08.518Z,23.80
2018-05-21T10:54:37.039Z,23.98
2018-05-21T10:57:05.601Z,24.01
2018-05-21T10:59:34.133Z,23.89
2018-05-21T11:02:02.623Z,23.97
2018-05-21T11:04:31.111Z,24.01
2018-05-21T11:06:59.703Z,24.04
2018-05-21T11:09:28.162Z,24.26
2018-05-21T11:11:56.720Z,24.39
2018-05-21T11:14:25.253Z,24.55
2018-05-21T11:16:53.765Z,24.34
2018-05-21T11:19:22.534Z,24.34
2018-05-21T11:21:51.828Z,24.41
2018-05-21T11:24:24.097Z,24.53
2018-05-21T11:26:53.134Z,24.95
2018-05-21T11:29:22.401Z,24.80
2018-05-21T11:31:52.645Z,25.02
2018-05-21T11:34:21.966Z,24.86
2018-05-21T11:36:50.412Z,24.95
2018-05-21T11:39:18.945Z,25.05
2018-05-21T11:41:47.410Z,25.25
2018-05-21T11:44:20.191Z,25.17
2018-05-21T11:46:48.742Z,25.00
2018-05-21T11:49:17.267Z,24.94
2018-05-21T11:51:53.981Z,25.20
2018-05-21T11:54:22.533Z,24.97
2018-05-21T11:56:51.029Z,25.15
2018-05-21T11:59:20.260Z,24.91
2018-05-21T12:01:48.831Z,24.98
2018-05-21T12:04:17.378Z,25.36
2018-05-21T12:06:46.631Z,25.14
2018-05-21T12:09:15.093Z,25.21
2018-05-21T12:11:43.548Z,25.17
2018-05-21T12:14:12.007Z,25.21
2018-05-21T12:16:41.291Z,25.22
2018-05-21T12:19:23.495Z,25.64
2018-05-21T12:24:41.513Z,25.86
2018-05-21T12:27:11.270Z,25.67
2018-05-21T12:29:55.358Z,25.48
2018-05-21T12:32:25.838Z,25.56
2018-05-21T12:34:55.085Z,25.39
2018-05-21T12:37:28.868Z,25.48
2018-05-21T12:39:57.537Z,25.74
2018-05-21T12:42:54.200Z,25.87
2018-05-21T12:45:22.698Z,25.72
2018-05-21T12:47:51.195Z,25.74
2018-05-21T12:50:19.646Z,25.78
2018-05-21T12:52:48.138Z,25.70
2018-05-21T12:55:16.665Z,26.00
2018-05-21T12:57:45.513Z,26.29
2018-05-21T13:00:14.042Z,26.24
2018-05-21T13:02:43.318Z,26.08
2018-05-21T13:05:11.769Z,26.03
2018-05-21T13:07:53.443Z,26.04
2018-05-21T13:10:21.915Z,26.37
2018-05-21T13:12:50.446Z,26.27
2018-05-21T13:15:18.912Z,26.45
2018-05-21T13:17:47.414Z,26.06
2018-05-21T13:20:29.695Z,26.25
2018-05-21T13:26:15.307Z,26.15
2018-05-21T13:28:44.642Z,26.27
2018-05-21T13:31:13.944Z,26.16
2018-05-21T13:33:43.213Z,26.27
2018-05-21T13:36:13.364Z,26.49
2018-05-21T13:38:57.425Z,26.48
2018-05-21T13:41:26.138Z,26.84
2018-05-21T13:43:54.632Z,26.56
2018-05-21T13:46:23.125Z,26.64
2018-05-21T13:48:52.483Z,26.53
2018-05-21T13:51:20.984Z,26.55
2018-05-21T13:54:11.536Z,26.73
2018-05-21T13:56:43.274Z,26.57
2018-05-21T13:59:12.574Z,26.59
2018-05-21T14:01:41.080Z,26.76
2018-05-21T14:04:09.568Z,26.85
2018-05-21T14:06:38.077Z,27.04
2018-05-21T14:09:15.221Z,27.08
2018-05-21T14:11:45.127Z,27.00
2018-05-21T14:14:13.682Z,26.94
2018-05-21T14:16:45.993Z,26.87
2018-05-21T14:22:44.549Z,27.10
2018-05-21T14:25:14.184Z,26.52
2018-05-21T14:27:42.655Z,26.64
2018-05-21T14:30:11.131Z,26.97
2018-05-21T14:32:45.251Z,26.88
2018-05-21T14:35:15.097Z,26.77
2018-05-21T14:37:46.710Z,26.78
2018-05-21T14:40:23.393Z,26.85
2018-05-21T14:45:41.044Z,27.21
2018-05-21T14:48:16.295Z,27.30
2018-05-21T14:50:46.160Z,26.84
2018-05-21T14:53:14.607Z,26.90
2018-05-21T14:56:08.319Z,27.03
2018-05-21T14:58:36.791Z,27.29
2018-05-21T15:01:09.775Z,27.13
2018-05-21T15:06:33.943Z,27.18
2018-05-21T15:09:03.526Z,27.08
2018-05-21T15:11:32.921Z,26.67
2018-05-21T15:14:01.410Z,26.39
2018-05-21T15:16:33.422Z,26.38
2018-05-21T15:19:02.669Z,26.63
2018-05-21T15:21:33.766Z,26.64
2018-05-21T15:24:02.384Z,26.72
2018-05-21T15:26:30.859Z,26.57
2018-05-21T15:28:59.351Z,26.30
2018-05-21T15:31:27.841Z,26.39
2018-05-21T15:33:57.051Z,26.03
2018-05-21T15:36:25.518Z,26.09
2018-05-21T15:38:56.243Z,25.78
2018-05-21T15:41:28.213Z,25.66
2018-05-21T15:44:26.086Z,25.73
2018-05-21T15:46:54.636Z,25.67
2018-05-21T15:52:23.586Z,25.76
2018-05-21T15:58:01.578Z,25.70
2018-05-21T16:00:47.817Z,25.58
2018-05-21T16:03:36.189Z,25.46
2018-05-21T16:06:06.230Z,25.24
2018-05-21T16:08:37.215Z,25.29
2018-05-21T16:11:05.869Z,25.20
2018-05-21T16:13:35.321Z,25.27
2018-05-21T16:16:04.049Z,25.01
2018-05-21T16:18:32.558Z,25.13
2018-05-21T16:21:01.301Z,25.17
2018-05-21T16:23:29.885Z,25.25
2018-05-21T16:25:59.348Z,25.18
2018-05-21T16:28:28.656Z,25.05
2018-05-21T16:30:57.233Z,24.85
2018-05-21T16:33:26.515Z,24.83
2018-05-21T16:35:55.241Z,24.93
2018-05-21T16:38:23.900Z,24.73
2018-05-21T16:40:52.405Z,24.79
2018-05-21T16:43:21.291Z,24.87
2018-05-21T16:45:49.821Z,24.96
2018-05-21T16:48:18.596Z,24.96
2018-05-21T16:50:47.257Z,25.03
2018-05-21T16:53:15.849Z,24.80
2018-05-21T16:55:44.412Z,24.68
2018-05-21T16:58:12.937Z,24.89
2018-05-21T17:00:42.096Z,24.79
2018-05-21T17:03:12.567Z,24.60
2018-05-21T17:05:41.179Z,24.41
2018-05-21T17:08:09.762Z,24.62
2018-05-21T17:10:38.861Z,24.74
2018-05-21T17:13:07.616Z,24.58
2018-05-21T17:15:36.346Z,24.57
2018-05-21T17:18:04.959Z,24.46
2018-05-21T17:20:33.681Z,24.44
2018-05-21T17:23:02.310Z,24.30
2018-05-21T17:25:33.788Z,24.32
2018-05-21T17:28:02.512Z,24.34
2018-05-21T17:30:31.168Z,24.40
2018-05-21T17:32:59.719Z,24.21
2018-05-21T17:35:28.398Z,24.18
2018-05-21T17:37:56.954Z,24.18
2018-05-21T17:40:25.612Z,24.24
2018-05-21T17:42:54.980Z,24.19
2018-05-21T17:45:23.566Z,24.22
2018-05-21T17:47:52.206Z,24.12
2018-05-21T17:50:20.920Z,24.23
2018-05-21T17:52:49.492Z,23.99
2018-05-21T17:55:18.165Z,23.99
2018-05-21T17:57:46.749Z,23.95
2018-05-21T18:00:15.392Z,24.06
2018-05-21T18:03:01.421Z,23.93
2018-05-21T18:05:30.061Z,23.82
2018-05-21T18:07:59.632Z,24.01
2018-05-21T18:10:31.642Z,23.80
2018-05-21T18:13:00.215Z,23.74
2018-05-21T18:15:32.703Z,23.66
2018-05-21T18:18:05.149Z,23.82
2018-05-21T18:20:36.678Z,23.53
2018-05-21T18:23:05.274Z,23.57
2018-05-21T18:25:34.097Z,23.63
2018-05-21T18:28:03.097Z,23.49
2018-05-21T18:30:31.867Z,23.54
2018-05-21T18:33:00.765Z,23.43
2018-05-21T18:35:29.425Z,23.24
2018-05-21T18:37:58.067Z,23.50
2018-05-21T18:43:22.095Z,22.96
2018-05-21T18:46:35.822Z,23.09
2018-05-21T18:52:27.844Z,22.96
2018-05-21T18:55:01.856Z,22.93
2018-05-21T18:57:32.866Z,22.83
2018-05-21T19:03:14.476Z,22.57
2018-05-21T19:05:44.894Z,22.65
2018-05-21T19:08:15.248Z,22.75
2018-05-21T19:10:45.265Z,22.75
2018-05-21T19:13:15.691Z,22.60
2018-05-21T19:15:47.115Z,22.66
2018-05-21T19:18:26.180Z,22.29
2018-05-21T19:24:11.035Z,22.18
2018-05-21T19:36:53.841Z,22.24
2018-05-21T19:39:29.269Z,22.24
2018-05-21T19:42:00.195Z,22.01
2018-05-21T19:44:36.677Z,22.11
2018-05-21T19:47:09.925Z,22.11
2018-05-21T19:49:58.344Z,22.02
2018-05-21T19:52:27.237Z,21.98
2018-05-21T19:54:56.812Z,22.32
2018-05-21T19:57:27.191Z,22.14
2018-05-21T20:02:59.768Z,21.74
2018-05-21T20:05:35.410Z,21.63
2018-05-21T20:30:20.880Z,21.39
2018-05-21T20:39:13.000Z,21.09
2018-05-21T20:41:42.849Z,21.26
2018-05-21T20:44:43.379Z,21.18
2018-05-21T21:34:33.549Z,20.83
2018-05-21T21:39:43.722Z,20.61
2018-05-21T21:45:13.740Z,20.37
2018-05-21T21:47:42.750Z,20.51
2018-05-21T21:53:38.908Z,20.51
2018-05-21T21:56:07.709Z,20.69
2018-05-21T21:58:52.676Z,20.37
2018-05-21T22:04:15.671Z,20.38
2018-05-21T22:06:51.710Z,20.56
2018-05-21T22:09:20.829Z,20.64
2018-05-21T22:17:38.236Z,20.14
2018-05-21T22:20:08.081Z,19.91
2018-05-21T22:44:13.804Z,20.36
2018-05-21T22:46:43.984Z,20.15
2018-05-21T22:52:35.354Z,20.29
2018-05-21T23:07:19.443Z,19.55
2018-05-21T23:09:49.597Z,20.08
2018-05-21T23:12:20.389Z,19.76
2018-05-21T23:15:14.812Z,20.12
2018-05-21T23:24:02.084Z,19.61
2018-05-21T23:29:21.347Z,19.70
2018-05-21T23:32:04.737Z,19.83
2018-05-21T23:34:47.274Z,19.62
2018-05-21T23:37:17.014Z,19.90
2018-05-21T23:45:24.199Z,19.48
2018-05-21T23:48:09.985Z,19.50
2018-05-21T23:53:24.399Z,20.03
2018-05-21T23:55:54.009Z,20.17
